Time;durP1;ratioP1;P1;durP2;ratioP2;P2;SDS_P1;SDS_P2;PMS_P1;PMS_P2;Temp;Humidity;BMP_temperature;BMP_pressure;BME280_temperature;BME280_humidity;BME280_pressure;Samples;Min_cycle;Max_cycle;Signal;HPM_P1;HPM_P2
2022/09/09 00:01:21;;;;;;;3.63;0.70;;;;;;;18.98;55.42;98329.31;4938844;28;20244;-54
2022/09/09 00:03:56;;;;;;;3.37;0.87;;;;;;;18.96;55.49;98322.56;4935380;28;20239;-52
2022/09/09 00:06:27;;;;;;;3.70;0.70;;;;;;;18.95;55.91;98318.31;4934902;28;20257;-51
2022/09/09 00:09:02;;;;;;;2.80;0.60;;;;;;;18.93;55.29;98313.25;4937330;28;20327;-53
2022/09/09 00:11:40;;;;;;;3.90;0.70;;;;;;;18.99;54.84;98315.06;4934280;28;20576;-51
2022/09/09 00:14:16;;;;;;;3.47;1.00;;;;;;;18.92;55.66;98314.25;4936711;28;20228;-52
2022/09/09 00:16:48;;;;;;;2.17;0.60;;;;;;;18.90;55.89;98316.31;4933296;28;20589;-51
2022/09/09 00:19:23;;;;;;;2.67;0.43;;;;;;;18.84;56.52;98328.53;4933150;28;20684;-53
2022/09/09 00:22:01;;;;;;;3.03;0.60;;;;;;;18.81;55.98;98322.88;4934295;28;20266;-53
2022/09/09 00:24:30;;;;;;;1.97;0.53;;;;;;;18.78;56.25;98318.81;4932919;28;20227;-52
2022/09/09 00:27:04;;;;;;;4.33;0.60;;;;;;;18.69;58.59;98326.19;4938738;28;20238;-51
2022/09/09 00:29:37;;;;;;;4.30;0.70;;;;;;;18.59;60.64;98320.53;4933709;28;20354;-52
2022/09/09 00:32:13;;;;;;;1.60;0.70;;;;;;;18.54;59.57;98328.28;4936097;28;20273;-54
2022/09/09 00:34:49;;;;;;;4.07;0.70;;;;;;;18.43;63.78;98337.69;4932004;28;20239;-54
2022/09/09 00:37:16;;;;;;;3.17;0.80;;;;;;;18.44;59.18;98341.94;4911749;28;20306;-53
2022/09/09 00:39:47;;;;;;;4.10;0.80;;;;;;;18.36;63.58;98358.03;4932682;28;20540;-53
2022/09/09 00:42:16;;;;;;;3.67;0.90;;;;;;;18.07;70.08;98360.94;4935631;28;20720;-55
2022/09/09 00:44:53;;;;;;;4.47;1.00;;;;;;;17.88;69.06;98382.88;4936312;28;20736;-52
2022/09/09 00:47:39;;;;;;;3.73;0.90;;;;;;;17.63;71.20;98386.13;4933127;28;20233;-54
2022/09/09 00:50:18;;;;;;;4.13;0.80;;;;;;;17.36;73.33;98399.28;4936609;28;20239;-52
2022/09/09 00:52:55;;;;;;;4.90;0.97;;;;;;;17.23;74.09;98400.88;4955620;28;20678;-53
2022/09/09 00:55:29;;;;;;;4.70;1.20;;;;;;;17.09;76.19;98401.84;4936217;28;20237;-51
2022/09/09 00:57:56;;;;;;;4.43;1.07;;;;;;;16.91;77.77;98395.31;4940289;28;20277;-52
2022/09/09 01:00:25;;;;;;;3.77;0.90;;;;;;;16.81;79.04;98408.84;4935965;28;20223;-50
2022/09/09 01:03:11;;;;;;;3.90;1.47;;;;;;;16.74;78.79;98397.47;4941219;28;20314;-53
2022/09/09 01:05:46;;;;;;;5.83;1.20;;;;;;;16.64;78.09;98392.56;4937246;28;20329;-52
2022/09/09 01:08:33;;;;;;;4.40;0.80;;;;;;;16.64;78.79;98389.09;4935381;28;20234;-51
2022/09/09 01:11:02;;;;;;;3.20;0.70;;;;;;;16.62;80.50;98404.28;4938995;28;20234;-50
2022/09/09 01:13:33;;;;;;;3.60;1.10;;;;;;;16.48;82.71;98387.63;4938229;28;20258;-53
2022/09/09 01:16:06;;;;;;;2.80;0.87;;;;;;;16.41;79.59;98384.97;4939145;28;20700;-53
2022/09/09 01:18:40;;;;;;;3.93;0.70;;;;;;;16.35;84.67;98370.72;4940607;28;20264;-54
2022/09/09 01:21:21;;;;;;;2.17;1.00;;;;;;;16.25;82.90;98370.25;4938203;28;20269;-54
2022/09/09 01:24:05;;;;;;;2.70;1.00;;;;;;;16.13;87.45;98377.91;4939010;28;20243;-52
2022/09/09 01:26:52;;;;;;;5.93;0.77;;;;;;;16.02;85.20;98373.16;4941441;28;20228;-52
2022/09/09 01:29:26;;;;;;;3.13;0.80;;;;;;;15.97;89.55;98386.88;4938809;28;20233;-53
2022/09/09 01:31:55;;;;;;;4.20;0.80;;;;;;;15.91;91.50;98391.13;4939888;28;20748;-51
2022/09/09 01:34:24;;;;;;;1.40;1.07;;;;;;;15.86;93.93;98390.84;4939006;28;21632;-53
2022/09/09 01:36:58;;;;;;;1.37;0.67;;;;;;;15.78;90.02;98397.06;4938398;28;20325;-52
2022/09/09 01:39:26;;;;;;;1.10;0.60;;;;;;;15.79;88.59;98375.00;4934588;28;20229;-51
2022/09/09 01:42:02;;;;;;;4.67;1.10;;;;;;;15.77;90.81;98355.97;4941417;28;20243;-51
2022/09/09 01:44:31;;;;;;;1.53;0.70;;;;;;;15.69;89.65;98350.84;4934475;28;20258;-52
2022/09/09 01:46:58;;;;;;;3.97;0.57;;;;;;;15.61;91.40;98354.41;4934901;28;20244;-54
2022/09/09 01:49:25;;;;;;;8.73;0.90;;;;;;;15.52;93.66;98362.63;4936200;28;20246;-51
2022/09/09 01:51:54;;;;;;;4.80;1.20;;;;;;;15.40;95.13;98354.44;4938046;28;20268;-51
2022/09/09 01:54:31;;;;;;;5.43;0.80;;;;;;;15.27;96.23;98341.97;4932604;28;20707;-51
2022/09/09 01:57:09;;;;;;;2.47;0.70;;;;;;;15.13;97.30;98328.72;4940347;28;20237;-53
2022/09/09 01:59:49;;;;;;;7.20;0.80;;;;;;;15.03;97.55;98325.56;4939151;28;20728;-51
2022/09/09 02:02:19;;;;;;;2.77;0.70;;;;;;;14.93;97.79;98327.69;4948786;28;20346;-51
2022/09/09 02:05:07;;;;;;;2.93;0.57;;;;;;;14.86;97.64;98319.75;4940137;28;20324;-51
2022/09/09 02:07:40;;;;;;;3.03;0.90;;;;;;;14.76;98.75;98327.94;4939959;28;20239;-54
2022/09/09 02:10:20;;;;;;;1.20;0.60;;;;;;;14.73;99.58;98331.75;4938185;28;20238;-52
2022/09/09 02:13:02;;;;;;;2.67;0.70;;;;;;;14.74;99.95;98319.44;4940758;28;20238;-53
2022/09/09 02:15:34;;;;;;;4.27;0.83;;;;;;;14.68;99.93;98305.19;4934571;28;20326;-54
2022/09/09 02:18:06;;;;;;;1.43;0.73;;;;;;;14.59;100.00;98303.66;4939157;28;20312;-52
2022/09/09 02:20:33;;;;;;;4.07;0.70;;;;;;;14.49;99.98;98297.88;4937654;28;20232;-52
2022/09/09 02:23:02;;;;;;;1.93;0.43;;;;;;;14.41;98.39;98296.19;4940294;28;20226;-53
2022/09/09 02:25:30;;;;;;;1.87;0.80;;;;;;;14.38;99.07;98291.31;4934119;28;20245;-54
2022/09/09 02:28:10;;;;;;;4.40;0.60;;;;;;;14.41;98.75;98296.19;4934873;28;20534;-54
2022/09/09 02:30:40;;;;;;;0.90;0.40;;;;;;;14.43;99.23;98288.94;4951681;28;20593;-52
2022/09/09 02:33:10;;;;;;;1.17;0.50;;;;;;;14.43;99.61;98294.19;4934358;28;20249;-52
2022/09/09 02:35:49;;;;;;;1.27;0.50;;;;;;;14.43;99.40;98297.63;4938049;28;20359;-54
2022/09/09 02:38:22;;;;;;;1.77;0.60;;;;;;;14.41;98.44;98293.56;4950977;28;20229;-55
2022/09/09 02:41:00;;;;;;;3.00;0.50;;;;;;;14.37;99.27;98290.47;4937026;28;20577;-51
2022/09/09 02:43:32;;;;;;;3.20;0.40;;;;;;;14.33;98.27;98297.09;4933631;28;20233;-50
2022/09/09 02:46:09;;;;;;;3.93;0.60;;;;;;;14.32;97.46;98291.03;4937956;28;20556;-53
2022/09/09 02:48:48;;;;;;;2.30;1.07;;;;;;;14.29;97.36;98282.72;4932912;28;20246;-53
2022/09/09 02:51:25;;;;;;;2.17;0.40;;;;;;;14.30;96.91;98292.22;4931922;28;20382;-51
2022/09/09 02:54:00;;;;;;;1.23;0.50;;;;;;;14.29;96.83;98296.66;4936664;28;20316;-52
2022/09/09 02:56:33;;;;;;;1.53;0.40;;;;;;;14.30;99.04;98303.53;4933692;28;20265;-51
2022/09/09 02:59:04;;;;;;;1.73;0.50;;;;;;;14.30;98.23;98302.72;4934198;28;20234;-54
2022/09/09 03:04:07;;;;;;;1.40;0.30;;;;;;;14.49;95.02;98317.09;5566423;23;20459;-52
2022/09/09 03:06:35;;;;;;;2.97;0.53;;;;;;;14.56;94.97;98314.53;4935154;28;20611;-51
2022/09/09 03:09:13;;;;;;;1.60;0.33;;;;;;;14.61;94.11;98310.38;4921740;28;20243;-53
2022/09/09 03:11:39;;;;;;;2.53;0.50;;;;;;;14.66;93.66;98312.44;4939583;28;20251;-51
2022/09/09 03:14:11;;;;;;;3.87;0.60;;;;;;;14.73;94.01;98299.41;4906103;28;20234;-51
2022/09/09 03:16:38;;;;;;;3.53;0.43;;;;;;;14.77;90.80;98303.31;4937940;23;20236;-51
2022/09/09 03:19:06;;;;;;;2.23;0.47;;;;;;;14.81;92.01;98307.19;4942789;28;20295;-51
2022/09/09 03:21:32;;;;;;;2.13;0.50;;;;;;;14.86;90.46;98306.59;4947452;28;20355;-51
2022/09/09 03:23:59;;;;;;;7.73;0.70;;;;;;;14.99;87.92;98314.63;4943901;28;20232;-50
2022/09/09 03:26:26;;;;;;;1.23;0.37;;;;;;;15.09;87.66;98324.81;4930295;28;20377;-53
2022/09/09 03:28:54;;;;;;;2.20;0.70;;;;;;;15.15;88.40;98318.03;4919375;28;20702;-51
2022/09/09 03:31:25;;;;;;;2.37;0.50;;;;;;;15.12;88.16;98329.72;4896809;28;20227;-51
2022/09/09 03:33:52;;;;;;;2.20;0.50;;;;;;;15.14;87.29;98303.25;4931788;28;20229;-54
2022/09/09 03:36:21;;;;;;;2.43;0.53;;;;;;;15.11;86.30;98307.06;4902278;29;20225;-52
2022/09/09 03:38:48;;;;;;;1.90;0.57;;;;;;;15.13;84.99;98306.88;4935921;28;20628;-52
2022/09/09 03:41:15;;;;;;;3.60;0.40;;;;;;;15.14;84.59;98314.56;4928477;28;20250;-52
2022/09/09 03:43:42;;;;;;;3.30;0.67;;;;;;;15.13;86.70;98312.94;4899309;29;20888;-54
2022/09/09 03:46:09;;;;;;;1.67;0.40;;;;;;;15.07;84.38;98302.38;4929962;28;20229;-51
2022/09/09 03:48:37;;;;;;;3.20;0.60;;;;;;;15.04;85.61;98307.00;4903543;29;20248;-54
2022/09/09 03:51:05;;;;;;;2.73;0.70;;;;;;;14.93;87.22;98306.66;4900412;28;20226;-51
2022/09/09 03:53:34;;;;;;;2.83;0.40;;;;;;;14.85;90.00;98307.59;4902322;29;20229;-51
2022/09/09 03:56:03;;;;;;;1.97;0.80;;;;;;;14.74;89.52;98303.66;4932683;28;20226;-51
2022/09/09 03:58:31;;;;;;;1.80;0.53;;;;;;;14.70;90.56;98310.28;4902168;29;20238;-53
2022/09/09 04:01:08;;;;;;;1.77;0.60;;;;;;;14.70;92.10;98310.28;4901208;28;20632;-54
2022/09/09 04:03:38;;;;;;;0.80;0.40;;;;;;;14.66;92.28;98304.53;4903649;29;20545;-51
2022/09/09 04:06:07;;;;;;;3.77;0.67;;;;;;;14.60;92.75;98302.66;4901741;29;20582;-54
2022/09/09 04:08:35;;;;;;;3.33;0.70;;;;;;;14.55;94.83;98302.41;4904364;29;20245;-53
2022/09/09 04:11:06;;;;;;;3.60;1.13;;;;;;;14.37;95.54;98302.81;4917713;28;20237;-52
2022/09/09 04:13:34;;;;;;;0.77;0.47;;;;;;;14.27;96.93;98303.91;4902430;29;20227;-51
2022/09/09 04:16:04;;;;;;;3.23;0.93;;;;;;;14.15;97.40;98300.94;4939463;28;20224;-52
2022/09/09 04:18:31;;;;;;;2.93;0.83;;;;;;;14.10;99.16;98299.81;4919303;28;20241;-52
2022/09/09 04:21:01;;;;;;;3.13;0.70;;;;;;;14.06;99.17;98303.81;4938202;28;20628;-52
2022/09/09 04:23:30;;;;;;;2.23;0.67;;;;;;;14.06;99.02;98301.19;4921481;28;21139;-54
2022/09/09 04:25:59;;;;;;;3.73;0.80;;;;;;;13.99;98.51;98312.41;4910657;29;20232;-51
2022/09/09 04:28:29;;;;;;;2.33;0.80;;;;;;;13.98;99.81;98309.97;4908377;28;20236;-52
2022/09/09 04:30:56;;;;;;;3.87;0.83;;;;;;;14.00;99.00;98318.47;4910114;29;20866;-54
2022/09/09 04:33:26;;;;;;;5.17;0.77;;;;;;;14.03;98.56;98321.53;4906810;28;20852;-51
2022/09/09 04:35:54;;;;;;;2.83;0.70;;;;;;;14.10;97.44;98312.94;4925218;28;20279;-51
2022/09/09 04:38:26;;;;;;;3.17;0.60;;;;;;;14.18;97.42;98323.38;4908841;28;20243;-51
2022/09/09 04:40:54;;;;;;;3.07;0.83;;;;;;;14.27;96.16;98319.66;4923637;28;20239;-51
2022/09/09 04:43:22;;;;;;;5.87;0.70;;;;;;;14.46;90.92;98327.97;4906876;28;20233;-51
2022/09/09 04:45:50;;;;;;;4.17;0.73;;;;;;;14.68;88.83;98326.19;4925647;28;20320;-54
2022/09/09 04:48:20;;;;;;;0.80;0.40;;;;;;;14.76;88.87;98327.94;4934904;28;20228;-51
2022/09/09 04:50:56;;;;;;;5.67;0.80;;;;;;;14.87;90.52;98337.16;4906564;29;20307;-51
2022/09/09 04:53:26;;;;;;;6.40;0.80;;;;;;;14.94;89.02;98343.28;4903932;29;20266;-50
2022/09/09 04:55:54;;;;;;;3.90;0.73;;;;;;;15.06;85.87;98333.09;4908202;29;20236;-51
2022/09/09 04:58:23;;;;;;;5.23;0.60;;;;;;;15.32;80.17;98339.59;4908246;28;20247;-54
2022/09/09 05:00:51;;;;;;;3.90;0.90;;;;;;;15.42;81.54;98334.00;4922669;28;20228;-51
2022/09/09 05:03:19;;;;;;;2.90;0.60;;;;;;;15.48;82.13;98331.44;4906641;28;20234;-53
2022/09/09 05:05:47;;;;;;;3.07;0.80;;;;;;;15.64;82.30;98337.44;4939369;28;20234;-53
2022/09/09 05:08:13;;;;;;;4.60;0.80;;;;;;;15.59;80.29;98337.19;4907835;28;20774;-51
2022/09/09 05:10:42;;;;;;;3.90;0.80;;;;;;;15.48;81.33;98336.72;4939363;28;20233;-51
2022/09/09 05:13:09;;;;;;;2.60;0.87;;;;;;;15.43;81.54;98344.34;4934637;28;20795;-51
2022/09/09 05:15:36;;;;;;;4.80;0.60;;;;;;;15.40;80.30;98333.38;4923178;28;20587;-52
2022/09/09 05:18:03;;;;;;;3.03;0.77;;;;;;;15.37;80.25;98342.47;4911218;29;20760;-54
2022/09/09 05:20:32;;;;;;;5.00;0.80;;;;;;;15.39;81.76;98351.00;4938309;28;20244;-54
2022/09/09 05:23:17;;;;;;;2.90;0.77;;;;;;;15.40;81.06;98347.38;4919932;28;20235;-54
2022/09/09 05:25:56;;;;;;;5.63;0.87;;;;;;;15.54;78.87;98347.47;4938008;28;20238;-54
2022/09/09 05:28:25;;;;;;;2.30;0.60;;;;;;;15.49;80.26;98345.41;4904153;28;20224;-54
2022/09/09 05:31:00;;;;;;;2.57;0.70;;;;;;;15.47;82.45;98350.03;4933730;28;20237;-51
2022/09/09 05:33:28;;;;;;;1.93;0.60;;;;;;;15.49;82.77;98350.66;4917098;28;20785;-51
2022/09/09 05:36:01;;;;;;;2.73;0.70;;;;;;;15.60;79.98;98346.72;4907279;29;20235;-51
2022/09/09 05:38:28;;;;;;;6.23;0.87;;;;;;;15.72;78.66;98349.63;4933554;28;20237;-51
2022/09/09 05:40:57;;;;;;;4.70;0.63;;;;;;;15.84;78.18;98352.56;4936232;28;20580;-53
2022/09/09 05:43:25;;;;;;;4.33;0.90;;;;;;;15.93;78.00;98364.59;4904834;28;20250;-52
2022/09/09 05:46:02;;;;;;;5.33;0.80;;;;;;;16.06;79.55;98361.25;4907003;29;20238;-51
2022/09/09 05:48:30;;;;;;;4.28;0.90;;;;;;;16.20;76.05;98362.97;4931679;28;20449;-52
2022/09/09 05:50:57;;;;;;;3.60;0.70;;;;;;;16.28;75.74;98361.97;4934655;28;20234;-51
2022/09/09 05:53:25;;;;;;;7.63;0.90;;;;;;;16.37;73.10;98360.00;4899653;28;20245;-51
2022/09/09 05:56:03;;;;;;;3.57;0.77;;;;;;;16.45;75.09;98365.09;4919746;28;20230;-51
2022/09/09 05:58:31;;;;;;;3.00;0.83;;;;;;;16.49;73.91;98358.44;4933995;28;20728;-51
2022/09/09 06:01:06;;;;;;;3.73;0.80;;;;;;;16.56;74.87;98361.09;4906688;29;20225;-53
2022/09/09 06:03:33;;;;;;;5.87;0.70;;;;;;;16.71;73.25;98362.78;4901743;29;20816;-51
2022/09/09 06:06:01;;;;;;;5.20;0.80;;;;;;;16.84;70.18;98362.84;4937072;28;20241;-50
2022/09/09 06:08:29;;;;;;;3.70;0.90;;;;;;;16.87;76.35;98364.25;4915510;28;20265;-51
2022/09/09 06:11:04;;;;;;;3.80;0.60;;;;;;;16.94;75.15;98352.72;4906699;29;20594;-52
2022/09/09 06:13:31;;;;;;;3.50;0.60;;;;;;;16.99;76.99;98364.50;4902955;29;20316;-53
2022/09/09 06:15:59;;;;;;;5.20;0.87;;;;;;;17.03;77.90;98365.75;4918387;29;20241;-54
2022/09/09 06:18:27;;;;;;;5.30;0.60;;;;;;;17.08;78.42;98358.88;4904127;28;20261;-53
2022/09/09 06:20:56;;;;;;;5.73;0.90;;;;;;;17.17;77.31;98364.75;4906539;29;20234;-53
2022/09/09 06:23:23;;;;;;;5.70;0.80;;;;;;;17.22;77.70;98358.91;4902593;28;20227;-51
2022/09/09 06:25:50;;;;;;;4.67;0.70;;;;;;;17.30;78.23;98353.44;4905620;29;20234;-50
2022/09/09 06:28:20;;;;;;;3.07;1.27;;;;;;;17.38;77.62;98355.88;4930800;28;20833;-51
2022/09/09 06:30:47;;;;;;;2.70;0.73;;;;;;;17.43;78.67;98360.53;4920312;28;20243;-52
2022/09/09 06:33:13;;;;;;;4.93;1.00;;;;;;;17.47;80.21;98363.59;4931236;28;20223;-51
2022/09/09 06:35:40;;;;;;;5.23;1.00;;;;;;;17.51;79.04;98364.78;4933633;29;20238;-55
2022/09/09 06:38:08;;;;;;;5.80;1.00;;;;;;;17.58;78.07;98362.16;4929652;28;20227;-53
2022/09/09 06:40:36;;;;;;;4.73;1.00;;;;;;;17.56;75.80;98368.47;4902076;29;20369;-51
2022/09/09 06:43:02;;;;;;;4.90;0.93;;;;;;;17.66;75.93;98361.97;4918813;28;20310;-53
2022/09/09 06:45:41;;;;;;;7.97;1.47;;;;;;;17.75;76.63;98365.22;4902938;29;20743;-51
2022/09/09 06:48:09;;;;;;;4.40;1.07;;;;;;;17.70;73.41;98365.84;4931904;28;20231;-52
2022/09/09 06:50:36;;;;;;;3.43;0.90;;;;;;;17.66;73.27;98369.88;4905441;29;20227;-53
2022/09/09 06:53:04;;;;;;;5.07;1.27;;;;;;;17.71;71.22;98364.81;4902985;29;20351;-51
2022/09/09 06:55:31;;;;;;;6.57;0.80;;;;;;;17.78;72.72;98362.16;4931084;28;20342;-55
2022/09/09 06:57:58;;;;;;;3.73;0.90;;;;;;;17.90;71.04;98363.16;4906200;29;20754;-51
2022/09/09 07:00:25;;;;;;;4.17;0.83;;;;;;;18.09;67.77;98360.72;4916879;28;20310;-53
2022/09/09 07:02:53;;;;;;;2.10;0.40;;;;;;;18.21;70.57;98364.38;4904929;29;20247;-51
2022/09/09 07:05:21;;;;;;;2.60;0.50;;;;;;;18.20;69.57;98357.47;4902250;28;20265;-53
2022/09/09 07:07:47;;;;;;;3.83;0.90;;;;;;;18.22;70.04;98367.81;4905352;29;20228;-51
2022/09/09 07:10:17;;;;;;;6.03;1.00;;;;;;;18.34;69.71;98368.78;4902642;29;20221;-51
2022/09/09 07:12:44;;;;;;;5.23;0.80;;;;;;;18.46;68.31;98373.44;4905541;29;20250;-52
2022/09/09 07:15:12;;;;;;;5.67;1.03;;;;;;;18.66;66.88;98376.81;4901145;28;20232;-51
2022/09/09 07:17:43;;;;;;;6.17;0.63;;;;;;;18.86;64.78;98383.88;4931360;28;20355;-53
2022/09/09 07:20:12;;;;;;;5.33;0.80;;;;;;;18.82;65.45;98387.97;4902375;29;20240;-53
2022/09/09 07:22:39;;;;;;;3.93;0.70;;;;;;;18.71;65.49;98384.94;4934051;28;20233;-51
2022/09/09 07:25:07;;;;;;;1.77;0.77;;;;;;;18.85;64.93;98374.31;4901893;29;20232;-54
2022/09/09 07:27:36;;;;;;;2.87;0.73;;;;;;;19.05;66.41;98389.31;4903633;29;20285;-54
2022/09/09 07:30:03;;;;;;;3.07;0.70;;;;;;;18.98;66.15;98381.38;4932852;28;20232;-51
2022/09/09 07:32:32;;;;;;;2.53;0.90;;;;;;;19.00;65.38;98389.94;4898537;29;20315;-53
2022/09/09 07:34:59;;;;;;;2.60;0.80;;;;;;;19.06;63.75;98394.38;4905389;29;20230;-53
2022/09/09 07:37:29;;;;;;;4.13;0.80;;;;;;;18.91;64.37;98378.75;4902763;28;20229;-54
2022/09/09 07:39:55;;;;;;;3.63;0.73;;;;;;;19.13;64.56;98391.66;4933392;28;20343;-51
2022/09/09 07:42:22;;;;;;;4.07;1.00;;;;;;;19.26;64.41;98391.59;4902097;28;20235;-51
2022/09/09 07:44:49;;;;;;;4.03;0.83;;;;;;;19.65;61.51;98396.03;4916155;28;20243;-52
2022/09/09 07:47:17;;;;;;;4.93;1.20;;;;;;;19.61;62.71;98406.22;4927007;28;20232;-54
2022/09/09 07:49:49;;;;;;;3.23;0.70;;;;;;;20.00;60.42;98411.47;4904166;29;20238;-55
2022/09/09 07:52:21;;;;;;;2.70;0.63;;;;;;;20.06;61.01;98405.31;4901060;28;20240;-52
2022/09/09 07:55:09;;;;;;;2.77;0.63;;;;;;;20.33;60.77;98410.31;4913432;28;20366;-51
2022/09/09 07:57:36;;;;;;;3.00;0.90;;;;;;;20.44;60.81;98424.69;4901621;29;20245;-53
2022/09/09 08:00:04;;;;;;;3.20;0.80;;;;;;;19.93;61.60;98408.84;4934097;28;20291;-51
2022/09/09 08:02:39;;;;;;;6.03;1.53;;;;;;;20.14;60.92;98409.50;4915277;28;20223;-53
2022/09/09 08:05:06;;;;;;;2.97;0.70;;;;;;;20.08;61.57;98420.97;4929502;28;20319;-53
2022/09/09 08:07:34;;;;;;;4.17;0.70;;;;;;;20.14;60.81;98428.84;4933887;28;20685;-52
2022/09/09 08:10:00;;;;;;;2.40;0.60;;;;;;;20.17;61.14;98414.34;4933625;28;20221;-53
2022/09/09 08:12:32;;;;;;;4.70;0.97;;;;;;;19.77;62.13;98420.78;4914728;28;20724;-53
2022/09/09 08:14:59;;;;;;;2.87;1.30;;;;;;;19.99;61.75;98421.25;4900898;29;20252;-51
2022/09/09 08:17:30;;;;;;;4.83;1.00;;;;;;;19.95;61.88;98430.66;4899572;29;20238;-51
2022/09/09 08:20:04;;;;;;;5.27;0.73;;;;;;;19.90;63.71;98428.66;4904578;28;20319;-52
2022/09/09 08:22:31;;;;;;;6.33;0.83;;;;;;;19.90;62.16;98425.19;4927303;28;20230;-52
2022/09/09 08:25:00;;;;;;;4.43;1.00;;;;;;;19.61;62.35;98422.94;4931699;28;20229;-54
2022/09/09 08:27:27;;;;;;;5.37;0.83;;;;;;;19.82;62.24;98426.25;4901911;28;20240;-52
2022/09/09 08:29:56;;;;;;;4.50;0.70;;;;;;;19.90;61.67;98426.00;4933850;28;20618;-52
2022/09/09 08:32:23;;;;;;;5.60;0.80;;;;;;;20.02;59.08;98431.41;4899591;29;20240;-52
2022/09/09 08:34:51;;;;;;;2.00;0.77;;;;;;;20.09;60.55;98439.31;4904414;29;20249;-51
2022/09/09 08:37:22;;;;;;;7.07;1.30;;;;;;;19.84;61.89;98437.44;4900976;29;20328;-51
2022/09/09 08:39:49;;;;;;;10.00;0.80;;;;;;;19.77;61.42;98437.47;4904100;29;20334;-54
2022/09/09 08:42:33;;;;;;;3.83;1.10;;;;;;;20.16;60.52;98437.38;4912538;28;20234;-55
2022/09/09 08:45:19;;;;;;;6.07;0.80;;;;;;;20.21;60.96;98436.75;4902048;29;20314;-53
2022/09/09 08:47:55;;;;;;;6.10;1.20;;;;;;;20.36;57.84;98439.03;4912636;28;20333;-52
2022/09/09 08:50:27;;;;;;;6.23;1.00;;;;;;;20.29;60.05;98438.28;4914373;28;20225;-51
2022/09/09 08:53:19;;;;;;;5.37;1.00;;;;;;;20.31;59.26;98437.06;4913499;28;20790;-53
2022/09/09 08:55:49;;;;;;;2.77;0.80;;;;;;;20.40;59.95;98437.56;4930262;28;20241;-52
2022/09/09 08:58:21;;;;;;;3.67;0.80;;;;;;;20.43;60.30;98442.44;4899020;28;20701;-53
2022/09/09 09:01:22;;;;;;;5.27;0.73;;;;;;;20.67;60.09;98426.69;4904476;29;20322;-52
2022/09/09 09:04:01;;;;;;;3.60;0.93;;;;;;;20.31;59.92;98438.88;4905859;29;20669;-52
2022/09/09 09:06:41;;;;;;;3.80;1.00;;;;;;;20.06;61.51;98440.53;4916691;28;20914;-53
2022/09/09 09:09:18;;;;;;;4.83;0.93;;;;;;;19.85;62.57;98435.59;4934865;28;20579;-51
2022/09/09 09:11:50;;;;;;;2.90;0.97;;;;;;;19.99;65.61;98428.38;4933115;28;20276;-54
2022/09/09 09:14:23;;;;;;;4.60;0.97;;;;;;;19.91;63.21;98425.00;4919617;28;20246;-52
2022/09/09 09:17:14;;;;;;;3.80;0.87;;;;;;;19.91;64.64;98425.00;4916282;28;20258;-52
2022/09/09 09:19:44;;;;;;;3.13;0.87;;;;;;;20.04;66.75;98421.41;4933735;28;20250;-52
2022/09/09 09:22:18;;;;;;;2.47;0.90;;;;;;;20.06;64.10;98414.03;4904062;28;20325;-52
2022/09/09 09:24:52;;;;;;;3.90;0.70;;;;;;;20.35;65.22;98426.81;4933557;28;20674;-51
2022/09/09 09:27:31;;;;;;;7.17;1.10;;;;;;;20.54;63.42;98432.13;4901679;28;20237;-52
2022/09/09 09:30:00;;;;;;;2.13;0.73;;;;;;;20.49;62.26;98432.81;4935869;28;20234;-53
2022/09/09 09:32:35;;;;;;;4.13;0.87;;;;;;;20.35;62.10;98429.47;4931385;28;20245;-52
2022/09/09 09:35:10;;;;;;;7.30;1.00;;;;;;;20.30;62.20;98430.13;4903953;29;20232;-52
2022/09/09 09:37:37;;;;;;;6.87;1.40;;;;;;;20.24;64.62;98432.84;4903979;29;20267;-51
2022/09/09 09:40:10;;;;;;;5.67;1.17;;;;;;;19.71;63.20;98427.75;4901270;29;20305;-53
2022/09/09 09:42:38;;;;;;;2.83;0.80;;;;;;;19.39;66.00;98432.25;4920933;28;20275;-50
2022/09/09 09:45:21;;;;;;;4.20;0.90;;;;;;;19.12;69.28;98437.66;4919467;28;20235;-50
2022/09/09 09:48:01;;;;;;;5.47;1.10;;;;;;;19.15;69.79;98439.91;4901616;28;20244;-52
2022/09/09 09:50:30;;;;;;;6.00;1.00;;;;;;;19.16;71.95;98449.47;4915760;28;20234;-51
2022/09/09 09:52:58;;;;;;;4.00;0.87;;;;;;;19.33;72.77;98440.00;4919810;28;20324;-56
2022/09/09 09:55:29;;;;;;;8.47;1.37;;;;;;;19.40;70.70;98439.97;4901922;28;20229;-53
2022/09/09 09:58:02;;;;;;;4.77;1.20;;;;;;;19.25;72.25;98450.84;4903982;29;20634;-49
2022/09/09 10:00:30;;;;;;;6.40;1.03;;;;;;;19.23;69.86;98455.53;4932770;28;20241;-50
2022/09/09 10:03:19;;;;;;;5.23;0.97;;;;;;;19.25;69.49;98453.47;4935127;28;20225;-52
2022/09/09 10:05:47;;;;;;;2.87;1.00;;;;;;;19.06;72.70;98436.69;4900465;29;20319;-50
2022/09/09 10:08:17;;;;;;;5.80;0.90;;;;;;;19.00;73.25;98433.06;4917381;28;20230;-52
2022/09/09 10:10:58;;;;;;;5.47;1.13;;;;;;;19.12;69.91;98441.16;4919998;28;20246;-51
2022/09/09 10:13:30;;;;;;;4.07;0.90;;;;;;;19.27;66.34;98432.91;4915092;28;20613;-51
2022/09/09 10:16:10;;;;;;;4.73;0.63;;;;;;;19.09;66.88;98438.09;4911490;28;20267;-54
2022/09/09 10:18:57;;;;;;;3.83;0.60;;;;;;;19.35;67.76;98433.69;4915823;29;20234;-52
2022/09/09 10:21:44;;;;;;;4.00;1.03;;;;;;;19.60;68.29;98439.84;4915527;28;20818;-51
2022/09/09 10:24:26;;;;;;;3.27;0.70;;;;;;;19.80;69.62;98436.25;4930153;28;20511;-53
2022/09/09 10:27:02;;;;;;;5.63;0.73;;;;;;;19.84;68.97;98434.78;4921766;28;20241;-52
2022/09/09 10:30:00;;;;;;;3.77;0.90;;;;;;;19.88;70.73;98443.94;4915823;28;20740;-49
2022/09/09 10:32:38;;;;;;;5.70;1.30;;;;;;;20.00;68.30;98440.59;4914996;28;20586;-51
2022/09/09 10:35:13;;;;;;;4.07;0.70;;;;;;;20.11;68.94;98439.06;4918632;28;20228;-50
2022/09/09 10:37:55;;;;;;;4.17;0.90;;;;;;;20.04;67.87;98458.50;4915024;28;20242;-56
2022/09/09 10:40:31;;;;;;;4.53;1.00;;;;;;;19.67;70.22;98450.38;4918273;28;20238;-54
2022/09/09 10:43:08;;;;;;;2.30;0.60;;;;;;;19.51;68.47;98446.41;4919107;28;20597;-50
2022/09/09 10:45:46;;;;;;;3.80;0.60;;;;;;;19.18;65.93;98435.00;4917356;28;20241;-49
2022/09/09 10:48:30;;;;;;;1.33;0.40;;;;;;;19.37;65.53;98429.81;4912851;28;20237;-50
2022/09/09 10:51:10;;;;;;;2.97;0.60;;;;;;;19.68;65.67;98430.81;4918506;28;20240;-49
2022/09/09 10:53:46;;;;;;;1.83;0.60;;;;;;;20.01;63.30;98424.47;4915469;28;20275;-50
2022/09/09 10:56:16;;;;;;;3.37;0.60;;;;;;;20.38;62.06;98425.56;4916262;28;20243;-52
2022/09/09 10:58:49;;;;;;;5.20;0.73;;;;;;;20.40;60.99;98419.00;4920050;28;20296;-51
2022/09/09 11:01:21;;;;;;;2.90;0.70;;;;;;;20.79;62.39;98421.47;4916881;28;20252;-55
2022/09/09 11:03:56;;;;;;;2.90;0.60;;;;;;;21.01;57.82;98423.66;4918798;28;20324;-53
2022/09/09 11:06:30;;;;;;;3.37;0.70;;;;;;;21.19;56.64;98412.22;4916538;28;20669;-50
2022/09/09 11:09:01;;;;;;;2.13;0.70;;;;;;;20.89;57.71;98418.31;4918397;28;20244;-51
2022/09/09 11:11:33;;;;;;;1.20;0.50;;;;;;;21.02;56.62;98419.97;4916113;28;20244;-52
2022/09/09 11:14:05;;;;;;;2.47;0.30;;;;;;;21.00;55.46;98406.09;4918442;28;20242;-54
2022/09/09 11:16:36;;;;;;;1.17;0.50;;;;;;;21.03;54.09;98406.50;4913511;28;20310;-51
2022/09/09 11:19:12;;;;;;;3.40;0.67;;;;;;;21.10;49.48;98406.38;4917413;28;20234;-54
2022/09/09 11:22:00;;;;;;;3.27;0.70;;;;;;;21.60;51.73;98405.25;4916614;28;20249;-53
2022/09/09 11:24:32;;;;;;;3.83;0.60;;;;;;;21.56;52.29;98412.06;4914943;28;20240;-54
2022/09/09 11:27:22;;;;;;;4.03;0.60;;;;;;;21.22;50.56;98412.56;4913785;28;20292;-53
2022/09/09 11:30:05;;;;;;;1.43;0.47;;;;;;;20.83;53.33;98427.94;4917562;28;20246;-53
2022/09/09 11:33:10;;;;;;;0.70;0.40;;;;;;;20.42;53.92;98406.34;4912928;28;20239;-52
2022/09/09 11:35:49;;;;;;;1.67;0.60;;;;;;;20.56;54.33;98412.34;4905771;28;20258;-52
2022/09/09 11:38:27;;;;;;;2.43;0.53;;;;;;;20.75;51.89;98405.16;4915782;28;20310;-54
2022/09/09 11:41:00;;;;;;;3.43;0.40;;;;;;;20.85;54.62;98409.16;4919600;28;20268;-51
2022/09/09 11:43:31;;;;;;;1.83;0.30;;;;;;;21.02;53.36;98412.84;4913554;28;20248;-54
2022/09/09 11:46:02;;;;;;;4.07;0.90;;;;;;;21.28;52.95;98405.50;4916476;28;20306;-54
2022/09/09 11:48:33;;;;;;;2.67;0.50;;;;;;;20.85;54.12;98404.66;4914938;28;20248;-53
2022/09/09 11:51:04;;;;;;;4.30;0.60;;;;;;;20.93;54.88;98393.75;4918757;28;20260;-52
2022/09/09 11:53:33;;;;;;;2.53;0.53;;;;;;;20.95;54.11;98393.53;4914227;28;20240;-51
2022/09/09 11:56:09;;;;;;;2.40;0.63;;;;;;;21.11;53.07;98388.63;4917328;28;20270;-51
2022/09/09 11:58:42;;;;;;;4.47;0.70;;;;;;;21.16;52.40;98396.72;4913821;28;20717;-52
2022/09/09 12:01:38;;;;;;;2.63;0.70;;;;;;;21.09;52.75;98391.50;4912377;28;20228;-54